sensor_id;sensor_type;location;lat;lon;timestamp;pressure;altitude;pressure_sealevel;temperature;humidity
49627;BME280;35527;54.616;39.786;2023-08-06T00:00:09;100250.28;;;22.99;88.97
49627;BME280;35527;54.616;39.786;2023-08-06T00:03:16;100248.72;;;22.97;88.53
49627;BME280;35527;54.616;39.786;2023-08-06T00:06:18;100251.84;;;23.02;88.08
49627;BME280;35527;54.616;39.786;2023-08-06T00:09:21;100251.13;;;23.00;88.86
49627;BME280;35527;54.616;39.786;2023-08-06T00:12:24;100224.06;;;22.86;89.31
49627;BME280;35527;54.616;39.786;2023-08-06T00:15:28;100246.66;;;23.00;89.10
49627;BME280;35527;54.616;39.786;2023-08-06T00:18:31;100242.69;;;22.94;89.58
49627;BME280;35527;54.616;39.786;2023-08-06T00:21:35;100232.81;;;22.87;89.85
49627;BME280;35527;54.616;39.786;2023-08-06T00:24:39;100238.78;;;22.89;90.82
49627;BME280;35527;54.616;39.786;2023-08-06T00:27:42;100224.94;;;22.76;90.65
49627;BME280;35527;54.616;39.786;2023-08-06T00:30:44;100224.50;;;22.70;91.85
49627;BME280;35527;54.616;39.786;2023-08-06T00:33:49;100224.16;;;22.64;92.60
49627;BME280;35527;54.616;39.786;2023-08-06T00:36:54;100209.53;;;22.60;93.31
49627;BME280;35527;54.616;39.786;2023-08-06T00:39:57;100235.41;;;22.66;93.13
49627;BME280;35527;54.616;39.786;2023-08-06T00:43:01;100242.25;;;22.68;92.34
49627;BME280;35527;54.616;39.786;2023-08-06T00:46:06;100246.44;;;22.71;92.05
49627;BME280;35527;54.616;39.786;2023-08-06T00:49:10;100222.72;;;22.60;92.22
49627;BME280;35527;54.616;39.786;2023-08-06T00:52:14;100240.84;;;22.64;92.75
49627;BME280;35527;54.616;39.786;2023-08-06T00:55:16;100232.97;;;22.53;93.71
49627;BME280;35527;54.616;39.786;2023-08-06T00:58:21;100253.34;;;22.51;94.71
49627;BME280;35527;54.616;39.786;2023-08-06T01:01:25;100239.63;;;22.36;95.64
49627;BME280;35527;54.616;39.786;2023-08-06T01:04:27;100236.19;;;22.24;96.56
49627;BME280;35527;54.616;39.786;2023-08-06T01:14:17;100246.47;;;22.27;97.04
49627;BME280;35527;54.616;39.786;2023-08-06T01:17:24;100241.31;;;22.26;96.95
49627;BME280;35527;54.616;39.786;2023-08-06T01:20:31;100243.97;;;22.26;97.48
49627;BME280;35527;54.616;39.786;2023-08-06T01:23:35;100248.41;;;22.25;98.16
49627;BME280;35527;54.616;39.786;2023-08-06T01:26:45;100250.22;;;22.25;98.52
49627;BME280;35527;54.616;39.786;2023-08-06T01:30:19;100248.41;;;22.25;99.00
49627;BME280;35527;54.616;39.786;2023-08-06T01:33:27;100232.25;;;22.19;98.74
49627;BME280;35527;54.616;39.786;2023-08-06T01:36:33;100234.88;;;22.19;98.49
49627;BME280;35527;54.616;39.786;2023-08-06T01:39:36;100254.16;;;22.31;98.78
49627;BME280;35527;54.616;39.786;2023-08-06T01:42:40;100262.19;;;22.29;98.98
49627;BME280;35527;54.616;39.786;2023-08-06T01:45:45;100249.47;;;22.12;99.64
49627;BME280;35527;54.616;39.786;2023-08-06T01:48:48;100272.63;;;22.19;100.00
49627;BME280;35527;54.616;39.786;2023-08-06T01:51:51;100265.19;;;22.13;100.00
49627;BME280;35527;54.616;39.786;2023-08-06T01:54:54;100275.72;;;22.13;100.00
49627;BME280;35527;54.616;39.786;2023-08-06T01:57:59;100265.69;;;22.07;100.00
49627;BME280;35527;54.616;39.786;2023-08-06T02:01:04;100270.38;;;22.03;100.00
49627;BME280;35527;54.616;39.786;2023-08-06T02:04:07;100284.00;;;22.09;100.00
49627;BME280;35527;54.616;39.786;2023-08-06T02:07:11;100280.53;;;22.08;100.00
49627;BME280;35527;54.616;39.786;2023-08-06T02:10:17;100293.47;;;22.11;100.00
49627;BME280;35527;54.616;39.786;2023-08-06T02:13:25;100282.34;;;22.08;100.00
49627;BME280;35527;54.616;39.786;2023-08-06T02:16:27;100293.34;;;22.13;100.00
49627;BME280;35527;54.616;39.786;2023-08-06T02:19:31;100270.13;;;22.07;100.00
49627;BME280;35527;54.616;39.786;2023-08-06T02:22:39;100279.81;;;22.06;100.00
49627;BME280;35527;54.616;39.786;2023-08-06T02:25:43;100301.78;;;22.18;100.00
49627;BME280;35527;54.616;39.786;2023-08-06T02:28:45;100288.44;;;22.08;100.00
49627;BME280;35527;54.616;39.786;2023-08-06T02:31:49;100298.75;;;22.22;100.00
49627;BME280;35527;54.616;39.786;2023-08-06T02:34:55;100286.53;;;22.21;100.00
49627;BME280;35527;54.616;39.786;2023-08-06T02:38:03;100301.88;;;22.27;100.00
49627;BME280;35527;54.616;39.786;2023-08-06T02:41:07;100284.00;;;22.20;99.97
49627;BME280;35527;54.616;39.786;2023-08-06T02:44:11;100300.66;;;22.32;99.84
49627;BME280;35527;54.616;39.786;2023-08-06T02:47:16;100309.03;;;22.37;99.32
49627;BME280;35527;54.616;39.786;2023-08-06T02:50:19;100316.69;;;22.40;99.08
49627;BME280;35527;54.616;39.786;2023-08-06T02:53:23;100315.25;;;22.47;98.44
49627;BME280;35527;54.616;39.786;2023-08-06T02:56:26;100308.75;;;22.51;98.15
49627;BME280;35527;54.616;39.786;2023-08-06T02:59:41;100306.94;;;22.52;97.80
49627;BME280;35527;54.616;39.786;2023-08-06T03:02:49;100299.72;;;22.65;97.30
49627;BME280;35527;54.616;39.786;2023-08-06T03:06:02;100315.72;;;22.84;95.29
49627;BME280;35527;54.616;39.786;2023-08-06T03:09:14;100303.69;;;22.91;94.10
49627;BME280;35527;54.616;39.786;2023-08-06T03:12:20;100330.97;;;23.13;92.39
49627;BME280;35527;54.616;39.786;2023-08-06T03:15:24;100307.78;;;23.16;92.55
49627;BME280;35527;54.616;39.786;2023-08-06T03:18:29;100303.00;;;23.31;91.72
49627;BME280;35527;54.616;39.786;2023-08-06T03:21:34;100321.38;;;23.54;90.33
49627;BME280;35527;54.616;39.786;2023-08-06T03:24:42;100323.66;;;23.68;89.55
49627;BME280;35527;54.616;39.786;2023-08-06T03:27:44;100323.91;;;23.86;88.87
49627;BME280;35527;54.616;39.786;2023-08-06T03:31:01;100317.84;;;25.04;82.72
49627;BME280;35527;54.616;39.786;2023-08-06T03:34:16;100301.50;;;27.11;66.39
49627;BME280;35527;54.616;39.786;2023-08-06T03:37:20;100330.38;;;28.78;56.90
49627;BME280;35527;54.616;39.786;2023-08-06T03:40:26;100329.16;;;29.70;53.07
49627;BME280;35527;54.616;39.786;2023-08-06T03:43:30;100314.19;;;30.00;50.16
49627;BME280;35527;54.616;39.786;2023-08-06T03:46:33;100328.03;;;30.43;48.97
49627;BME280;35527;54.616;39.786;2023-08-06T03:49:39;100312.22;;;30.88;47.13
49627;BME280;35527;54.616;39.786;2023-08-06T03:52:45;100322.41;;;31.45;45.27
49627;BME280;35527;54.616;39.786;2023-08-06T03:55:47;100331.31;;;31.82;44.62
49627;BME280;35527;54.616;39.786;2023-08-06T03:58:50;100334.69;;;32.35;43.72
49627;BME280;35527;54.616;39.786;2023-08-06T04:01:53;100322.94;;;32.36;42.99
49627;BME280;35527;54.616;39.786;2023-08-06T04:04:58;100326.78;;;32.63;41.99
49627;BME280;35527;54.616;39.786;2023-08-06T04:08:01;100322.06;;;32.65;42.25
49627;BME280;35527;54.616;39.786;2023-08-06T04:11:05;100321.38;;;33.00;40.65
49627;BME280;35527;54.616;39.786;2023-08-06T04:14:10;100323.88;;;33.08;40.57
49627;BME280;35527;54.616;39.786;2023-08-06T04:17:13;100313.94;;;33.30;39.46
49627;BME280;35527;54.616;39.786;2023-08-06T04:20:17;100317.09;;;33.40;39.33
49627;BME280;35527;54.616;39.786;2023-08-06T04:23:21;100314.75;;;33.30;39.09
49627;BME280;35527;54.616;39.786;2023-08-06T04:26:29;100316.72;;;33.43;39.13
49627;BME280;35527;54.616;39.786;2023-08-06T04:29:37;100302.06;;;33.46;39.28
49627;BME280;35527;54.616;39.786;2023-08-06T04:32:42;100318.31;;;33.66;38.99
49627;BME280;35527;54.616;39.786;2023-08-06T04:35:46;100320.31;;;33.98;38.59
49627;BME280;35527;54.616;39.786;2023-08-06T04:38:55;100312.78;;;34.22;38.11
49627;BME280;35527;54.616;39.786;2023-08-06T04:41:57;100314.16;;;34.66;37.83
49627;BME280;35527;54.616;39.786;2023-08-06T04:45:02;100302.38;;;35.20;36.72
49627;BME280;35527;54.616;39.786;2023-08-06T04:48:05;100306.03;;;36.17;35.30
49627;BME280;35527;54.616;39.786;2023-08-06T04:51:07;100295.47;;;36.79;34.16
49627;BME280;35527;54.616;39.786;2023-08-06T04:54:14;100291.06;;;37.53;33.47
49627;BME280;35527;54.616;39.786;2023-08-06T04:57:17;100296.50;;;37.65;32.39
49627;BME280;35527;54.616;39.786;2023-08-06T05:00:21;100304.38;;;37.30;33.08
49627;BME280;35527;54.616;39.786;2023-08-06T05:03:30;100304.41;;;37.05;33.43
49627;BME280;35527;54.616;39.786;2023-08-06T05:06:34;100293.66;;;37.41;33.00
49627;BME280;35527;54.616;39.786;2023-08-06T05:09:37;100297.25;;;38.09;32.11
49627;BME280;35527;54.616;39.786;2023-08-06T05:12:43;100299.28;;;37.77;32.46
49627;BME280;35527;54.616;39.786;2023-08-06T05:15:47;100299.34;;;38.07;31.95
49627;BME280;35527;54.616;39.786;2023-08-06T05:18:50;100305.84;;;37.07;32.89
49627;BME280;35527;54.616;39.786;2023-08-06T05:21:53;100304.19;;;36.43;34.23
49627;BME280;35527;54.616;39.786;2023-08-06T05:24:56;100296.84;;;36.31;34.08
49627;BME280;35527;54.616;39.786;2023-08-06T05:27:59;100288.50;;;35.88;34.64
49627;BME280;35527;54.616;39.786;2023-08-06T05:31:05;100293.47;;;36.36;34.05
49627;BME280;35527;54.616;39.786;2023-08-06T05:34:09;100292.75;;;36.79;34.10
49627;BME280;35527;54.616;39.786;2023-08-06T05:37:14;100295.78;;;36.33;33.98
49627;BME280;35527;54.616;39.786;2023-08-06T05:40:18;100291.44;;;36.63;33.60
49627;BME280;35527;54.616;39.786;2023-08-06T05:43:21;100281.50;;;37.32;32.40
49627;BME280;35527;54.616;39.786;2023-08-06T05:46:24;100300.81;;;37.11;32.23
49627;BME280;35527;54.616;39.786;2023-08-06T05:49:27;100283.38;;;37.32;33.00
49627;BME280;35527;54.616;39.786;2023-08-06T05:52:30;100285.16;;;37.93;32.31
49627;BME280;35527;54.616;39.786;2023-08-06T05:55:35;100289.91;;;38.40;31.92
49627;BME280;35527;54.616;39.786;2023-08-06T05:58:38;100285.97;;;38.12;31.66
49627;BME280;35527;54.616;39.786;2023-08-06T06:01:41;100282.44;;;37.19;32.85
49627;BME280;35527;54.616;39.786;2023-08-06T06:04:45;100288.69;;;37.38;33.27
49627;BME280;35527;54.616;39.786;2023-08-06T06:07:49;100290.75;;;37.92;32.62
49627;BME280;35527;54.616;39.786;2023-08-06T06:10:52;100281.53;;;36.82;33.20
49627;BME280;35527;54.616;39.786;2023-08-06T06:13:54;100287.84;;;37.01;33.45
49627;BME280;35527;54.616;39.786;2023-08-06T06:17:01;100291.19;;;37.58;32.86
49627;BME280;35527;54.616;39.786;2023-08-06T06:20:06;100297.25;;;37.35;32.10
49627;BME280;35527;54.616;39.786;2023-08-06T06:23:10;100299.53;;;36.88;33.43
49627;BME280;35527;54.616;39.786;2023-08-06T06:26:13;100280.69;;;37.32;32.50
49627;BME280;35527;54.616;39.786;2023-08-06T06:29:20;100285.56;;;38.39;31.60
49627;BME280;35527;54.616;39.786;2023-08-06T06:32:25;100292.88;;;39.27;29.88
49627;BME280;35527;54.616;39.786;2023-08-06T06:35:28;100291.94;;;39.10;29.65
49627;BME280;35527;54.616;39.786;2023-08-06T06:38:33;100285.78;;;37.95;31.29
49627;BME280;35527;54.616;39.786;2023-08-06T06:41:36;100284.34;;;38.23;31.22
49627;BME280;35527;54.616;39.786;2023-08-06T06:44:51;100280.03;;;38.34;29.73
49627;BME280;35527;54.616;39.786;2023-08-06T06:47:54;100270.75;;;37.26;30.58
49627;BME280;35527;54.616;39.786;2023-08-06T06:50:58;100272.69;;;36.75;31.41
49627;BME280;35527;54.616;39.786;2023-08-06T06:54:02;100267.06;;;37.02;31.11
49627;BME280;35527;54.616;39.786;2023-08-06T06:57:05;100284.22;;;36.50;31.57
49627;BME280;35527;54.616;39.786;2023-08-06T07:00:09;100268.53;;;36.72;31.84
49627;BME280;35527;54.616;39.786;2023-08-06T07:03:12;100274.50;;;37.25;30.57
49627;BME280;35527;54.616;39.786;2023-08-06T07:06:16;100281.63;;;37.93;30.70
49627;BME280;35527;54.616;39.786;2023-08-06T07:09:20;100276.06;;;37.87;30.85
49627;BME280;35527;54.616;39.786;2023-08-06T07:12:23;100273.88;;;38.15;30.37
49627;BME280;35527;54.616;39.786;2023-08-06T07:15:26;100263.19;;;38.62;30.51
49627;BME280;35527;54.616;39.786;2023-08-06T07:18:29;100268.13;;;38.65;30.68
49627;BME280;35527;54.616;39.786;2023-08-06T07:21:32;100264.03;;;38.97;30.01
49627;BME280;35527;54.616;39.786;2023-08-06T07:24:35;100255.22;;;39.66;28.31
49627;BME280;35527;54.616;39.786;2023-08-06T07:27:40;100262.59;;;38.71;28.56
49627;BME280;35527;54.616;39.786;2023-08-06T07:30:47;100264.16;;;38.37;29.29
49627;BME280;35527;54.616;39.786;2023-08-06T07:33:52;100262.72;;;38.35;29.40
49627;BME280;35527;54.616;39.786;2023-08-06T07:36:54;100264.94;;;38.26;30.40
49627;BME280;35527;54.616;39.786;2023-08-06T07:40:00;100262.25;;;39.27;28.98
49627;BME280;35527;54.616;39.786;2023-08-06T07:43:03;100249.72;;;40.18;28.41
49627;BME280;35527;54.616;39.786;2023-08-06T07:46:08;100247.66;;;38.81;29.11
49627;BME280;35527;54.616;39.786;2023-08-06T07:49:12;100260.34;;;38.68;28.85
49627;BME280;35527;54.616;39.786;2023-08-06T07:52:15;100267.88;;;39.49;28.73
49627;BME280;35527;54.616;39.786;2023-08-06T07:55:18;100262.81;;;38.46;28.92
49627;BME280;35527;54.616;39.786;2023-08-06T07:58:23;100258.44;;;38.45;29.46
49627;BME280;35527;54.616;39.786;2023-08-06T08:01:26;100261.91;;;38.34;29.76
49627;BME280;35527;54.616;39.786;2023-08-06T08:04:29;100264.94;;;38.56;30.62
49627;BME280;35527;54.616;39.786;2023-08-06T08:07:33;100260.50;;;38.97;29.30
49627;BME280;35527;54.616;39.786;2023-08-06T08:10:39;100267.44;;;39.92;27.69
49627;BME280;35527;54.616;39.786;2023-08-06T08:13:42;100255.66;;;38.64;28.66
49627;BME280;35527;54.616;39.786;2023-08-06T08:16:46;100240.25;;;37.62;30.35
49627;BME280;35527;54.616;39.786;2023-08-06T08:19:49;100240.22;;;38.11;30.04
49627;BME280;35527;54.616;39.786;2023-08-06T08:22:54;100250.63;;;39.03;29.61
49627;BME280;35527;54.616;39.786;2023-08-06T08:25:57;100237.69;;;37.97;31.65
49627;BME280;35527;54.616;39.786;2023-08-06T08:28:59;100224.47;;;36.60;32.52
49627;BME280;35527;54.616;39.786;2023-08-06T08:32:02;100218.78;;;36.12;33.25
49627;BME280;35527;54.616;39.786;2023-08-06T08:35:09;100238.28;;;37.32;31.95
49627;BME280;35527;54.616;39.786;2023-08-06T08:38:12;100232.22;;;36.75;31.41
49627;BME280;35527;54.616;39.786;2023-08-06T08:41:16;100245.28;;;36.71;31.87
49627;BME280;35527;54.616;39.786;2023-08-06T08:44:20;100240.31;;;36.75;31.94
49627;BME280;35527;54.616;39.786;2023-08-06T08:47:25;100240.59;;;36.35;32.75
49627;BME280;35527;54.616;39.786;2023-08-06T08:50:28;100244.88;;;36.18;32.72
49627;BME280;35527;54.616;39.786;2023-08-06T08:53:33;100249.66;;;36.02;32.29
49627;BME280;35527;54.616;39.786;2023-08-06T08:56:37;100230.97;;;35.76;33.45
49627;BME280;35527;54.616;39.786;2023-08-06T08:59:41;100234.09;;;36.11;31.89
49627;BME280;35527;54.616;39.786;2023-08-06T09:02:45;100216.91;;;35.67;33.59
49627;BME280;35527;54.616;39.786;2023-08-06T09:05:53;100201.69;;;35.41;33.92
49627;BME280;35527;54.616;39.786;2023-08-06T09:09:06;100217.13;;;36.86;32.11
49627;BME280;35527;54.616;39.786;2023-08-06T09:12:15;100223.38;;;37.30;31.33
49627;BME280;35527;54.616;39.786;2023-08-06T09:15:18;100229.56;;;36.37;33.16
49627;BME280;35527;54.616;39.786;2023-08-06T09:18:27;100206.59;;;35.51;34.57
49627;BME280;35527;54.616;39.786;2023-08-06T09:21:32;100210.78;;;35.92;34.32
49627;BME280;35527;54.616;39.786;2023-08-06T09:24:38;100191.00;;;35.14;35.05
49627;BME280;35527;54.616;39.786;2023-08-06T09:27:46;100221.66;;;34.87;35.15
49627;BME280;35527;54.616;39.786;2023-08-06T09:30:52;100212.34;;;35.68;34.01
49627;BME280;35527;54.616;39.786;2023-08-06T09:33:59;100192.47;;;36.07;33.60
49627;BME280;35527;54.616;39.786;2023-08-06T09:37:09;100192.81;;;35.27;34.63
49627;BME280;35527;54.616;39.786;2023-08-06T09:40:30;100195.94;;;35.76;33.72
49627;BME280;35527;54.616;39.786;2023-08-06T09:43:42;100204.97;;;35.50;34.49
49627;BME280;35527;54.616;39.786;2023-08-06T09:46:51;100193.31;;;34.51;35.59
49627;BME280;35527;54.616;39.786;2023-08-06T09:49:56;100204.44;;;34.08;37.01
49627;BME280;35527;54.616;39.786;2023-08-06T09:53:00;100180.91;;;34.50;36.64
49627;BME280;35527;54.616;39.786;2023-08-06T09:56:04;100166.63;;;35.48;34.45
49627;BME280;35527;54.616;39.786;2023-08-06T09:59:06;100166.94;;;35.71;34.04
49627;BME280;35527;54.616;39.786;2023-08-06T10:02:13;100129.50;;;36.26;33.00
49627;BME280;35527;54.616;39.786;2023-08-06T10:05:18;100175.00;;;35.78;33.23
49627;BME280;35527;54.616;39.786;2023-08-06T10:08:21;100163.53;;;34.79;34.12
49627;BME280;35527;54.616;39.786;2023-08-06T10:11:24;100167.81;;;35.13;34.06
49627;BME280;35527;54.616;39.786;2023-08-06T10:14:35;100172.69;;;35.36;34.27
49627;BME280;35527;54.616;39.786;2023-08-06T10:17:42;100165.63;;;34.37;34.50
49627;BME280;35527;54.616;39.786;2023-08-06T10:20:51;100162.59;;;33.72;35.94
49627;BME280;35527;54.616;39.786;2023-08-06T10:23:54;100155.81;;;33.96;35.62
49627;BME280;35527;54.616;39.786;2023-08-06T10:26:58;100155.81;;;33.96;36.43
49627;BME280;35527;54.616;39.786;2023-08-06T10:30:35;100156.41;;;33.17;37.56
49627;BME280;35527;54.616;39.786;2023-08-06T10:33:46;100146.16;;;32.99;37.96
49627;BME280;35527;54.616;39.786;2023-08-06T10:36:54;100143.28;;;32.66;38.63
49627;BME280;35527;54.616;39.786;2023-08-06T10:40:01;100134.88;;;32.75;39.00
49627;BME280;35527;54.616;39.786;2023-08-06T10:43:04;100141.47;;;33.08;37.78
49627;BME280;35527;54.616;39.786;2023-08-06T10:46:12;100137.16;;;32.79;37.98
49627;BME280;35527;54.616;39.786;2023-08-06T10:49:23;100121.06;;;32.79;37.42
49627;BME280;35527;54.616;39.786;2023-08-06T10:52:29;100124.81;;;33.19;37.95
49627;BME280;35527;54.616;39.786;2023-08-06T10:55:34;100126.88;;;33.72;36.89
49627;BME280;35527;54.616;39.786;2023-08-06T10:58:37;100131.06;;;33.39;37.75
49627;BME280;35527;54.616;39.786;2023-08-06T11:01:41;100125.75;;;33.46;37.69
49627;BME280;35527;54.616;39.786;2023-08-06T11:04:49;100114.75;;;32.93;37.42
49627;BME280;35527;54.616;39.786;2023-08-06T11:07:51;100120.31;;;33.33;37.48
49627;BME280;35527;54.616;39.786;2023-08-06T11:10:55;100115.91;;;33.05;36.56
49627;BME280;35527;54.616;39.786;2023-08-06T11:14:15;100123.00;;;32.91;36.56
49627;BME280;35527;54.616;39.786;2023-08-06T11:17:18;100111.00;;;32.52;37.38
49627;BME280;35527;54.616;39.786;2023-08-06T11:20:25;100121.50;;;32.82;36.48
49627;BME280;35527;54.616;39.786;2023-08-06T11:23:29;100123.31;;;32.75;37.09
49627;BME280;35527;54.616;39.786;2023-08-06T11:26:32;100112.88;;;32.30;37.01
49627;BME280;35527;54.616;39.786;2023-08-06T11:29:39;100112.13;;;32.65;36.53
49627;BME280;35527;54.616;39.786;2023-08-06T11:32:47;100112.84;;;32.80;37.74
49627;BME280;35527;54.616;39.786;2023-08-06T11:35:50;100096.13;;;32.78;37.71
49627;BME280;35527;54.616;39.786;2023-08-06T11:38:53;100087.50;;;32.89;37.02
49627;BME280;35527;54.616;39.786;2023-08-06T11:41:59;100090.63;;;32.58;38.21
49627;BME280;35527;54.616;39.786;2023-08-06T11:45:11;100087.03;;;32.79;37.77
49627;BME280;35527;54.616;39.786;2023-08-06T11:48:14;100078.31;;;32.64;38.25
49627;BME280;35527;54.616;39.786;2023-08-06T11:51:17;100069.72;;;32.82;38.15
49627;BME280;35527;54.616;39.786;2023-08-06T11:54:32;100073.38;;;32.67;37.95
49627;BME280;35527;54.616;39.786;2023-08-06T11:57:44;100077.38;;;32.85;37.46
49627;BME280;35527;54.616;39.786;2023-08-06T12:00:47;100065.00;;;32.84;38.13
49627;BME280;35527;54.616;39.786;2023-08-06T12:03:49;100081.03;;;32.42;38.14
49627;BME280;35527;54.616;39.786;2023-08-06T12:06:52;100069.56;;;32.27;38.86
49627;BME280;35527;54.616;39.786;2023-08-06T12:09:58;100056.38;;;31.97;38.55
49627;BME280;35527;54.616;39.786;2023-08-06T12:13:09;100072.06;;;32.00;39.21
49627;BME280;35527;54.616;39.786;2023-08-06T12:17:10;100056.44;;;31.82;39.13
49627;BME280;35527;54.616;39.786;2023-08-06T12:20:16;100070.09;;;32.16;38.51
49627;BME280;35527;54.616;39.786;2023-08-06T12:23:21;100058.13;;;31.90;38.99
49627;BME280;35527;54.616;39.786;2023-08-06T12:26:25;100068.78;;;31.40;38.99
49627;BME280;35527;54.616;39.786;2023-08-06T12:29:27;100045.59;;;31.11;38.77
49627;BME280;35527;54.616;39.786;2023-08-06T12:32:34;100080.88;;;31.07;39.97
49627;BME280;35527;54.616;39.786;2023-08-06T12:35:38;100063.56;;;31.03;40.30
49627;BME280;35527;54.616;39.786;2023-08-06T12:38:42;100045.13;;;31.08;41.03
49627;BME280;35527;54.616;39.786;2023-08-06T12:41:45;100061.03;;;31.31;40.26
49627;BME280;35527;54.616;39.786;2023-08-06T12:44:49;100054.88;;;31.15;40.44
49627;BME280;35527;54.616;39.786;2023-08-06T12:47:53;100055.19;;;31.06;41.59
49627;BME280;35527;54.616;39.786;2023-08-06T12:51:05;100030.94;;;30.92;41.87
49627;BME280;35527;54.616;39.786;2023-08-06T12:54:09;100048.34;;;31.03;41.73
49627;BME280;35527;54.616;39.786;2023-08-06T12:57:12;100047.72;;;31.01;42.10
49627;BME280;35527;54.616;39.786;2023-08-06T13:00:15;100035.56;;;30.84;41.74
49627;BME280;35527;54.616;39.786;2023-08-06T13:03:19;100028.78;;;31.17;42.24
49627;BME280;35527;54.616;39.786;2023-08-06T13:06:28;100041.38;;;31.24;41.54
49627;BME280;35527;54.616;39.786;2023-08-06T13:09:32;100011.78;;;30.89;42.64
49627;BME280;35527;54.616;39.786;2023-08-06T13:12:36;100027.00;;;30.88;42.73
49627;BME280;35527;54.616;39.786;2023-08-06T13:15:40;100025.31;;;30.87;42.88
49627;BME280;35527;54.616;39.786;2023-08-06T13:18:44;100019.44;;;30.77;43.08
49627;BME280;35527;54.616;39.786;2023-08-06T13:24:56;100021.63;;;30.44;42.98
49627;BME280;35527;54.616;39.786;2023-08-06T13:28:03;100011.97;;;30.43;43.80
49627;BME280;35527;54.616;39.786;2023-08-06T13:31:07;99999.03;;;30.17;43.83
49627;BME280;35527;54.616;39.786;2023-08-06T13:34:14;100004.50;;;30.53;43.68
49627;BME280;35527;54.616;39.786;2023-08-06T13:37:21;99983.38;;;30.73;43.80
49627;BME280;35527;54.616;39.786;2023-08-06T13:40:33;99989.75;;;30.72;44.16
49627;BME280;35527;54.616;39.786;2023-08-06T13:43:36;100012.34;;;30.55;44.26
49627;BME280;35527;54.616;39.786;2023-08-06T13:46:44;100003.50;;;30.39;44.91
49627;BME280;35527;54.616;39.786;2023-08-06T13:49:47;99996.94;;;30.27;44.39
49627;BME280;35527;54.616;39.786;2023-08-06T13:52:55;100008.53;;;30.19;44.41
49627;BME280;35527;54.616;39.786;2023-08-06T13:55:58;99998.09;;;30.09;44.04
49627;BME280;35527;54.616;39.786;2023-08-06T13:59:02;99990.56;;;30.13;44.56
49627;BME280;35527;54.616;39.786;2023-08-06T14:02:07;100002.41;;;30.34;44.34
49627;BME280;35527;54.616;39.786;2023-08-06T14:05:13;99999.44;;;30.43;43.80
49627;BME280;35527;54.616;39.786;2023-08-06T14:08:16;99997.22;;;30.32;44.58
49627;BME280;35527;54.616;39.786;2023-08-06T14:11:22;99996.59;;;30.45;45.56
49627;BME280;35527;54.616;39.786;2023-08-06T14:14:27;99988.59;;;30.45;44.52
49627;BME280;35527;54.616;39.786;2023-08-06T14:17:35;99990.41;;;30.44;45.01
49627;BME280;35527;54.616;39.786;2023-08-06T14:20:38;99986.06;;;30.73;45.85
49627;BME280;35527;54.616;39.786;2023-08-06T14:23:45;99987.53;;;30.90;45.44
49627;BME280;35527;54.616;39.786;2023-08-06T14:26:51;99981.28;;;30.39;44.44
49627;BME280;35527;54.616;39.786;2023-08-06T14:29:56;99973.53;;;30.14;45.28
49627;BME280;35527;54.616;39.786;2023-08-06T14:33:00;99970.97;;;30.36;45.92
49627;BME280;35527;54.616;39.786;2023-08-06T14:36:10;99975.03;;;30.46;46.42
49627;BME280;35527;54.616;39.786;2023-08-06T14:39:14;99974.84;;;30.33;47.06
49627;BME280;35527;54.616;39.786;2023-08-06T14:42:17;99960.84;;;30.16;47.32
49627;BME280;35527;54.616;39.786;2023-08-06T14:45:20;99961.41;;;30.26;47.68
49627;BME280;35527;54.616;39.786;2023-08-06T14:48:24;99965.75;;;30.42;47.52
49627;BME280;35527;54.616;39.786;2023-08-06T14:51:27;99949.25;;;30.39;46.64
49627;BME280;35527;54.616;39.786;2023-08-06T14:54:33;99965.53;;;30.44;46.83
49627;BME280;35527;54.616;39.786;2023-08-06T14:57:36;99949.22;;;30.09;47.46
49627;BME280;35527;54.616;39.786;2023-08-06T15:00:39;99961.66;;;30.17;47.96
49627;BME280;35527;54.616;39.786;2023-08-06T15:03:45;99940.47;;;30.00;47.79
49627;BME280;35527;54.616;39.786;2023-08-06T15:06:48;99966.81;;;30.03;48.39
49627;BME280;35527;54.616;39.786;2023-08-06T15:09:51;99954.72;;;29.93;48.14
49627;BME280;35527;54.616;39.786;2023-08-06T15:13:08;99964.34;;;29.79;48.32
49627;BME280;35527;54.616;39.786;2023-08-06T15:16:12;99963.47;;;29.86;48.89
49627;BME280;35527;54.616;39.786;2023-08-06T15:19:16;99952.31;;;29.83;48.51
49627;BME280;35527;54.616;39.786;2023-08-06T15:22:18;99947.06;;;29.75;48.61
49627;BME280;35527;54.616;39.786;2023-08-06T15:25:22;99948.72;;;29.53;48.81
49627;BME280;35527;54.616;39.786;2023-08-06T15:28:47;99956.34;;;29.56;49.17
49627;BME280;35527;54.616;39.786;2023-08-06T15:31:50;99961.69;;;29.56;49.34
49627;BME280;35527;54.616;39.786;2023-08-06T15:34:53;99960.16;;;29.61;49.48
49627;BME280;35527;54.616;39.786;2023-08-06T15:37:56;99966.34;;;29.62;50.14
49627;BME280;35527;54.616;39.786;2023-08-06T15:41:04;99962.72;;;29.55;50.27
49627;BME280;35527;54.616;39.786;2023-08-06T15:44:07;99951.38;;;29.53;50.70
49627;BME280;35527;54.616;39.786;2023-08-06T15:47:10;99976.16;;;29.38;51.73
49627;BME280;35527;54.616;39.786;2023-08-06T15:50:16;99949.34;;;29.17;52.82
49627;BME280;35527;54.616;39.786;2023-08-06T15:53:20;99968.22;;;29.07;53.40
49627;BME280;35527;54.616;39.786;2023-08-06T15:56:26;99937.97;;;28.92;54.45
49627;BME280;35527;54.616;39.786;2023-08-06T15:59:31;99950.00;;;28.88;54.76
49627;BME280;35527;54.616;39.786;2023-08-06T16:02:35;99960.81;;;28.86;55.11
49627;BME280;35527;54.616;39.786;2023-08-06T16:05:41;99969.16;;;28.83;55.84